sensor_id;sensor_type;location;lat;lon;timestamp;pressure;altitude;pressure_sealevel;temperature;humidity
8627;BME280;4351;51.422;6.794;2022-09-01T00:00:12;101648.22;;;19.33;100.00
8627;BME280;4351;51.422;6.794;2022-09-01T00:02:42;101645.25;;;19.25;100.00
8627;BME280;4351;51.422;6.794;2022-09-01T00:05:11;101649.59;;;19.27;100.00
8627;BME280;4351;51.422;6.794;2022-09-01T00:07:39;101643.53;;;19.24;100.00
8627;BME280;4351;51.422;6.794;2022-09-01T00:10:08;101653.75;;;19.22;100.00
8627;BME280;4351;51.422;6.794;2022-09-01T00:12:37;101651.25;;;19.18;100.00
8627;BME280;4351;51.422;6.794;2022-09-01T00:15:07;101646.25;;;19.12;100.00
8627;BME280;4351;51.422;6.794;2022-09-01T00:17:36;101645.53;;;19.10;100.00
8627;BME280;4351;51.422;6.794;2022-09-01T00:20:06;101643.91;;;19.07;100.00
8627;BME280;4351;51.422;6.794;2022-09-01T00:22:35;101650.50;;;19.05;100.00
8627;BME280;4351;51.422;6.794;2022-09-01T00:25:04;101636.59;;;18.96;100.00
8627;BME280;4351;51.422;6.794;2022-09-01T00:27:32;101638.59;;;18.94;100.00
8627;BME280;4351;51.422;6.794;2022-09-01T00:30:04;101645.78;;;18.95;100.00
8627;BME280;4351;51.422;6.794;2022-09-01T00:32:33;101645.41;;;19.00;100.00
8627;BME280;4351;51.422;6.794;2022-09-01T00:35:02;101647.03;;;18.91;100.00
8627;BME280;4351;51.422;6.794;2022-09-01T00:37:31;101648.56;;;18.84;100.00
8627;BME280;4351;51.422;6.794;2022-09-01T00:40:00;101645.06;;;18.82;100.00
8627;BME280;4351;51.422;6.794;2022-09-01T00:42:28;101640.97;;;18.88;100.00
8627;BME280;4351;51.422;6.794;2022-09-01T00:44:56;101645.19;;;18.80;100.00
8627;BME280;4351;51.422;6.794;2022-09-01T00:47:25;101639.09;;;18.77;100.00
8627;BME280;4351;51.422;6.794;2022-09-01T00:49:53;101639.25;;;18.64;100.00
8627;BME280;4351;51.422;6.794;2022-09-01T00:52:25;101638.38;;;18.63;100.00
8627;BME280;4351;51.422;6.794;2022-09-01T00:55:00;101639.97;;;18.66;100.00
8627;BME280;4351;51.422;6.794;2022-09-01T00:57:30;101634.53;;;18.66;100.00
8627;BME280;4351;51.422;6.794;2022-09-01T01:00:07;101636.66;;;18.73;100.00
8627;BME280;4351;51.422;6.794;2022-09-01T01:02:37;101637.13;;;18.67;100.00
8627;BME280;4351;51.422;6.794;2022-09-01T01:05:07;101633.78;;;18.64;100.00
8627;BME280;4351;51.422;6.794;2022-09-01T01:07:42;101632.16;;;18.72;100.00
8627;BME280;4351;51.422;6.794;2022-09-01T01:10:17;101627.66;;;18.71;100.00
8627;BME280;4351;51.422;6.794;2022-09-01T01:12:48;101632.28;;;18.71;100.00
8627;BME280;4351;51.422;6.794;2022-09-01T01:15:18;101631.03;;;18.64;100.00
8627;BME280;4351;51.422;6.794;2022-09-01T01:17:46;101631.41;;;18.70;100.00
8627;BME280;4351;51.422;6.794;2022-09-01T01:20:16;101632.28;;;18.71;100.00
8627;BME280;4351;51.422;6.794;2022-09-01T01:23:10;101625.22;;;18.68;100.00
8627;BME280;4351;51.422;6.794;2022-09-01T01:25:48;101622.09;;;18.61;100.00
8627;BME280;4351;51.422;6.794;2022-09-01T01:28:20;101631.91;;;18.64;100.00
8627;BME280;4351;51.422;6.794;2022-09-01T01:30:55;101626.22;;;18.56;100.00
8627;BME280;4351;51.422;6.794;2022-09-01T01:33:27;101625.34;;;18.55;100.00
8627;BME280;4351;51.422;6.794;2022-09-01T01:35:56;101623.50;;;18.56;100.00
8627;BME280;4351;51.422;6.794;2022-09-01T01:38:27;101632.44;;;18.58;100.00
8627;BME280;4351;51.422;6.794;2022-09-01T01:40:59;101636.63;;;18.50;100.00
8627;BME280;4351;51.422;6.794;2022-09-01T01:43:27;101635.88;;;18.48;100.00
8627;BME280;4351;51.422;6.794;2022-09-01T01:45:56;101629.91;;;18.43;100.00
8627;BME280;4351;51.422;6.794;2022-09-01T01:48:34;101627.94;;;18.45;100.00
8627;BME280;4351;51.422;6.794;2022-09-01T01:51:05;101639.88;;;18.44;100.00
8627;BME280;4351;51.422;6.794;2022-09-01T01:53:33;101638.38;;;18.40;100.00
8627;BME280;4351;51.422;6.794;2022-09-01T01:56:03;101642.22;;;18.37;100.00
8627;BME280;4351;51.422;6.794;2022-09-01T01:58:35;101647.06;;;18.34;100.00
8627;BME280;4351;51.422;6.794;2022-09-01T02:01:09;101648.91;;;18.33;100.00
8627;BME280;4351;51.422;6.794;2022-09-01T02:03:39;101646.06;;;18.35;100.00
8627;BME280;4351;51.422;6.794;2022-09-01T02:06:09;101653.38;;;18.34;100.00
8627;BME280;4351;51.422;6.794;2022-09-01T02:08:39;101657.25;;;18.32;100.00
8627;BME280;4351;51.422;6.794;2022-09-01T02:11:08;101649.78;;;18.22;100.00
8627;BME280;4351;51.422;6.794;2022-09-01T02:13:38;101651.97;;;18.17;100.00
8627;BME280;4351;51.422;6.794;2022-09-01T02:16:07;101645.25;;;18.10;100.00
8627;BME280;4351;51.422;6.794;2022-09-01T02:18:41;101649.59;;;18.12;100.00
8627;BME280;4351;51.422;6.794;2022-09-01T02:21:15;101651.47;;;18.12;100.00
8627;BME280;4351;51.422;6.794;2022-09-01T02:23:46;101646.63;;;18.15;100.00
8627;BME280;4351;51.422;6.794;2022-09-01T02:26:16;101648.97;;;18.09;100.00
8627;BME280;4351;51.422;6.794;2022-09-01T02:28:48;101653.16;;;18.01;100.00
8627;BME280;4351;51.422;6.794;2022-09-01T02:31:25;101648.22;;;18.07;100.00
8627;BME280;4351;51.422;6.794;2022-09-01T02:33:57;101648.72;;;18.00;100.00
8627;BME280;4351;51.422;6.794;2022-09-01T02:36:27;101641.75;;;17.96;100.00
8627;BME280;4351;51.422;6.794;2022-09-01T02:38:58;101642.34;;;17.88;100.00
8627;BME280;4351;51.422;6.794;2022-09-01T02:41:28;101640.09;;;17.82;100.00
8627;BME280;4351;51.422;6.794;2022-09-01T02:43:58;101633.88;;;17.80;100.00
8627;BME280;4351;51.422;6.794;2022-09-01T02:46:28;101637.00;;;17.87;100.00
8627;BME280;4351;51.422;6.794;2022-09-01T02:48:57;101634.50;;;17.84;100.00
8627;BME280;4351;51.422;6.794;2022-09-01T02:51:26;101629.81;;;17.86;100.00
8627;BME280;4351;51.422;6.794;2022-09-01T02:53:54;101633.00;;;17.79;100.00
8627;BME280;4351;51.422;6.794;2022-09-01T02:56:24;101634.75;;;17.80;100.00
8627;BME280;4351;51.422;6.794;2022-09-01T02:58:54;101637.22;;;17.72;100.00
8627;BME280;4351;51.422;6.794;2022-09-01T03:01:25;101635.47;;;17.71;100.00
8627;BME280;4351;51.422;6.794;2022-09-01T03:03:59;101639.69;;;17.75;100.00
8627;BME280;4351;51.422;6.794;2022-09-01T03:06:29;101634.44;;;17.61;100.00
8627;BME280;4351;51.422;6.794;2022-09-01T03:09:00;101643.38;;;17.63;100.00
8627;BME280;4351;51.422;6.794;2022-09-01T03:11:31;101645.75;;;17.67;100.00
8627;BME280;4351;51.422;6.794;2022-09-01T03:14:02;101638.41;;;17.56;100.00
8627;BME280;4351;51.422;6.794;2022-09-01T03:16:31;101645.13;;;17.64;100.00
8627;BME280;4351;51.422;6.794;2022-09-01T03:19:00;101639.00;;;17.60;100.00
8627;BME280;4351;51.422;6.794;2022-09-01T03:21:29;101646.69;;;17.55;100.00
8627;BME280;4351;51.422;6.794;2022-09-01T03:23:58;101646.44;;;17.58;100.00
8627;BME280;4351;51.422;6.794;2022-09-01T03:26:27;101650.19;;;17.57;100.00
8627;BME280;4351;51.422;6.794;2022-09-01T03:28:56;101641.25;;;17.55;100.00
8627;BME280;4351;51.422;6.794;2022-09-01T03:31:26;101646.78;;;17.53;100.00
8627;BME280;4351;51.422;6.794;2022-09-01T03:34:02;101649.44;;;17.55;100.00
8627;BME280;4351;51.422;6.794;2022-09-01T03:36:36;101653.00;;;17.55;100.00
8627;BME280;4351;51.422;6.794;2022-09-01T03:39:05;101649.53;;;17.53;100.00
8627;BME280;4351;51.422;6.794;2022-09-01T03:41:42;101651.84;;;17.46;100.00
8627;BME280;4351;51.422;6.794;2022-09-01T03:44:11;101649.78;;;17.50;100.00
8627;BME280;4351;51.422;6.794;2022-09-01T03:46:45;101649.50;;;17.42;100.00
8627;BME280;4351;51.422;6.794;2022-09-01T03:49:13;101648.50;;;17.43;100.00
8627;BME280;4351;51.422;6.794;2022-09-01T03:51:51;101646.53;;;17.45;100.00
8627;BME280;4351;51.422;6.794;2022-09-01T03:54:19;101641.88;;;17.34;100.00
8627;BME280;4351;51.422;6.794;2022-09-01T03:56:50;101634.16;;;17.28;100.00
8627;BME280;4351;51.422;6.794;2022-09-01T03:59:22;101635.03;;;17.28;100.00
8627;BME280;4351;51.422;6.794;2022-09-01T04:01:52;101637.22;;;17.23;100.00
8627;BME280;4351;51.422;6.794;2022-09-01T04:04:20;101633.13;;;17.17;100.00
8627;BME280;4351;51.422;6.794;2022-09-01T04:06:48;101628.44;;;17.19;100.00
8627;BME280;4351;51.422;6.794;2022-09-01T04:09:16;101630.28;;;17.06;100.00
8627;BME280;4351;51.422;6.794;2022-09-01T04:11:45;101629.19;;;17.08;100.00
8627;BME280;4351;51.422;6.794;2022-09-01T04:14:17;101625.31;;;16.99;100.00
8627;BME280;4351;51.422;6.794;2022-09-01T04:16:47;101637.94;;;17.00;100.00
8627;BME280;4351;51.422;6.794;2022-09-01T04:19:36;101623.13;;;16.92;100.00
8627;BME280;4351;51.422;6.794;2022-09-01T04:22:07;101624.25;;;16.89;100.00
8627;BME280;4351;51.422;6.794;2022-09-01T04:24:40;101629.28;;;16.82;100.00
8627;BME280;4351;51.422;6.794;2022-09-01T04:27:12;101622.31;;;16.78;100.00
8627;BME280;4351;51.422;6.794;2022-09-01T04:29:41;101626.13;;;16.75;100.00
8627;BME280;4351;51.422;6.794;2022-09-01T04:32:12;101628.63;;;16.78;100.00
8627;BME280;4351;51.422;6.794;2022-09-01T04:34:49;101622.06;;;16.81;100.00
8627;BME280;4351;51.422;6.794;2022-09-01T04:37:20;101629.31;;;16.69;100.00
8627;BME280;4351;51.422;6.794;2022-09-01T04:39:54;101621.44;;;16.77;100.00
8627;BME280;4351;51.422;6.794;2022-09-01T04:42:25;101615.13;;;16.77;100.00
8627;BME280;4351;51.422;6.794;2022-09-01T04:44:58;101613.28;;;16.77;100.00
8627;BME280;4351;51.422;6.794;2022-09-01T04:47:37;101619.69;;;16.76;100.00
8627;BME280;4351;51.422;6.794;2022-09-01T04:50:10;101625.38;;;16.73;100.00
8627;BME280;4351;51.422;6.794;2022-09-01T04:52:58;101629.84;;;16.61;100.00
8627;BME280;4351;51.422;6.794;2022-09-01T04:55:30;101620.28;;;16.55;100.00
8627;BME280;4351;51.422;6.794;2022-09-01T04:57:59;101624.09;;;16.53;100.00
8627;BME280;4351;51.422;6.794;2022-09-01T05:00:36;101630.00;;;16.47;100.00
8627;BME280;4351;51.422;6.794;2022-09-01T05:03:05;101622.56;;;16.49;100.00
8627;BME280;4351;51.422;6.794;2022-09-01T05:05:59;101629.09;;;16.59;100.00
8627;BME280;4351;51.422;6.794;2022-09-01T05:08:28;101620.75;;;16.36;100.00
8627;BME280;4351;51.422;6.794;2022-09-01T05:11:04;101621.06;;;16.45;100.00
8627;BME280;4351;51.422;6.794;2022-09-01T05:13:38;101625.50;;;16.46;100.00
8627;BME280;4351;51.422;6.794;2022-09-01T05:16:09;101628.22;;;16.46;100.00
8627;BME280;4351;51.422;6.794;2022-09-01T05:18:41;101630.75;;;16.49;100.00
8627;BME280;4351;51.422;6.794;2022-09-01T05:21:14;101634.44;;;16.48;100.00
8627;BME280;4351;51.422;6.794;2022-09-01T05:23:44;101630.94;;;16.46;100.00
8627;BME280;4351;51.422;6.794;2022-09-01T05:26:14;101635.22;;;16.37;100.00
8627;BME280;4351;51.422;6.794;2022-09-01T05:28:45;101630.19;;;16.43;100.00
8627;BME280;4351;51.422;6.794;2022-09-01T05:31:14;101635.28;;;16.61;100.00
8627;BME280;4351;51.422;6.794;2022-09-01T05:33:46;101628.66;;;16.52;100.00
8627;BME280;4351;51.422;6.794;2022-09-01T05:36:20;101636.28;;;16.60;100.00
8627;BME280;4351;51.422;6.794;2022-09-01T05:38:50;101640.00;;;16.59;100.00
8627;BME280;4351;51.422;6.794;2022-09-01T05:41:19;101638.03;;;16.61;100.00
8627;BME280;4351;51.422;6.794;2022-09-01T05:43:50;101640.41;;;16.66;100.00
8627;BME280;4351;51.422;6.794;2022-09-01T05:46:26;101637.34;;;16.71;100.00
8627;BME280;4351;51.422;6.794;2022-09-01T05:48:56;101639.09;;;16.72;100.00
8627;BME280;4351;51.422;6.794;2022-09-01T05:51:28;101644.78;;;16.69;100.00
8627;BME280;4351;51.422;6.794;2022-09-01T05:54:12;101643.25;;;16.77;100.00
8627;BME280;4351;51.422;6.794;2022-09-01T05:56:41;101640.38;;;16.79;100.00
8627;BME280;4351;51.422;6.794;2022-09-01T05:59:17;101647.16;;;16.73;100.00
8627;BME280;4351;51.422;6.794;2022-09-01T06:01:52;101641.69;;;16.86;100.00
8627;BME280;4351;51.422;6.794;2022-09-01T06:04:22;101647.97;;;17.00;100.00
8627;BME280;4351;51.422;6.794;2022-09-01T06:06:53;101646.00;;;17.02;100.00
8627;BME280;4351;51.422;6.794;2022-09-01T06:09:36;101649.25;;;17.07;100.00
8627;BME280;4351;51.422;6.794;2022-09-01T06:12:06;101650.56;;;17.15;100.00
8627;BME280;4351;51.422;6.794;2022-09-01T06:14:35;101651.34;;;17.17;100.00
8627;BME280;4351;51.422;6.794;2022-09-01T06:17:05;101650.56;;;17.15;100.00
8627;BME280;4351;51.422;6.794;2022-09-01T06:19:36;101651.88;;;17.22;100.00
8627;BME280;4351;51.422;6.794;2022-09-01T06:22:07;101650.94;;;17.34;100.00
8627;BME280;4351;51.422;6.794;2022-09-01T06:24:36;101653.94;;;17.43;100.00
8627;BME280;4351;51.422;6.794;2022-09-01T06:27:06;101655.38;;;17.60;100.00
8627;BME280;4351;51.422;6.794;2022-09-01T06:29:35;101656.03;;;17.64;100.00
8627;BME280;4351;51.422;6.794;2022-09-01T06:32:38;101655.78;;;17.67;100.00
8627;BME280;4351;51.422;6.794;2022-09-01T06:35:30;101661.38;;;17.41;100.00
8627;BME280;4351;51.422;6.794;2022-09-01T06:39:14;101657.41;;;17.69;100.00
8627;BME280;4351;51.422;6.794;2022-09-01T06:42:18;101662.63;;;17.73;100.00
8627;BME280;4351;51.422;6.794;2022-09-01T06:45:28;101664.50;;;17.72;100.00
8627;BME280;4351;51.422;6.794;2022-09-01T06:50:01;101665.75;;;17.79;100.00
8627;BME280;4351;51.422;6.794;2022-09-01T07:11:16;101662.69;;;18.20;100.00
8627;BME280;4351;51.422;6.794;2022-09-01T07:19:06;101670.41;;;18.38;100.00
8627;BME280;4351;51.422;6.794;2022-09-01T07:21:45;101668.28;;;18.42;100.00
8627;BME280;4351;51.422;6.794;2022-09-01T07:24:36;101668.91;;;18.45;100.00
8627;BME280;4351;51.422;6.794;2022-09-01T07:27:42;101672.03;;;18.52;100.00
8627;BME280;4351;51.422;6.794;2022-09-01T07:30:19;101675.88;;;18.84;100.00
8627;BME280;4351;51.422;6.794;2022-09-01T07:32:51;101666.56;;;18.75;100.00
8627;BME280;4351;51.422;6.794;2022-09-01T07:35:24;101675.66;;;18.76;100.00
8627;BME280;4351;51.422;6.794;2022-09-01T07:37:54;101674.34;;;19.03;100.00
8627;BME280;4351;51.422;6.794;2022-09-01T07:40:46;101669.91;;;18.90;100.00
8627;BME280;4351;51.422;6.794;2022-09-01T07:44:04;101671.41;;;18.94;100.00
8627;BME280;4351;51.422;6.794;2022-09-01T07:47:15;101677.09;;;19.03;100.00
8627;BME280;4351;51.422;6.794;2022-09-01T07:50:15;101678.09;;;19.25;100.00
8627;BME280;4351;51.422;6.794;2022-09-01T07:53:33;101679.47;;;19.19;100.00
8627;BME280;4351;51.422;6.794;2022-09-01T08:01:55;101677.78;;;19.39;100.00
8627;BME280;4351;51.422;6.794;2022-09-01T08:28:00;101684.66;;;20.21;100.00
8627;BME280;4351;51.422;6.794;2022-09-01T08:31:59;101694.09;;;20.28;100.00
8627;BME280;4351;51.422;6.794;2022-09-01T08:34:46;101687.28;;;20.23;100.00
8627;BME280;4351;51.422;6.794;2022-09-01T08:56:10;101682.31;;;20.69;100.00
8627;BME280;4351;51.422;6.794;2022-09-01T09:09:02;101676.75;;;21.12;100.00
8627;BME280;4351;51.422;6.794;2022-09-01T09:21:24;101664.22;;;21.19;100.00
8627;BME280;4351;51.422;6.794;2022-09-01T09:24:08;101663.63;;;21.25;100.00
8627;BME280;4351;51.422;6.794;2022-09-01T09:26:37;101665.81;;;21.52;100.00
8627;BME280;4351;51.422;6.794;2022-09-01T09:29:09;101662.19;;;21.21;100.00
8627;BME280;4351;51.422;6.794;2022-09-01T09:31:38;101662.47;;;21.18;100.00
8627;BME280;4351;51.422;6.794;2022-09-01T09:34:17;101663.63;;;21.25;100.00
8627;BME280;4351;51.422;6.794;2022-09-01T09:36:45;101658.41;;;21.22;100.00
8627;BME280;4351;51.422;6.794;2022-09-01T09:39:22;101655.97;;;21.39;100.00
8627;BME280;4351;51.422;6.794;2022-09-01T09:42:03;101651.06;;;21.33;100.00
8627;BME280;4351;51.422;6.794;2022-09-01T09:44:40;101655.25;;;21.57;100.00
8627;BME280;4351;51.422;6.794;2022-09-01T09:47:10;101655.44;;;21.45;100.00
8627;BME280;4351;51.422;6.794;2022-09-01T09:50:16;101650.50;;;21.49;100.00
8627;BME280;4351;51.422;6.794;2022-09-01T09:52:46;101653.41;;;21.47;100.00
8627;BME280;4351;51.422;6.794;2022-09-01T09:55:27;101656.59;;;21.63;95.61
8627;BME280;4351;51.422;6.794;2022-09-01T09:57:58;101644.88;;;21.51;95.09
8627;BME280;4351;51.422;6.794;2022-09-01T10:00:28;101648.19;;;21.44;97.64
8627;BME280;4351;51.422;6.794;2022-09-01T10:02:59;101640.97;;;21.73;94.10
8627;BME280;4351;51.422;6.794;2022-09-01T10:05:39;101638.22;;;21.63;95.88
8627;BME280;4351;51.422;6.794;2022-09-01T10:08:11;101630.56;;;21.77;92.48
8627;BME280;4351;51.422;6.794;2022-09-01T10:10:44;101621.63;;;21.65;89.71
8627;BME280;4351;51.422;6.794;2022-09-01T10:13:25;101622.91;;;21.90;92.22
8627;BME280;4351;51.422;6.794;2022-09-01T10:15:59;101629.06;;;22.22;88.10
8627;BME280;4351;51.422;6.794;2022-09-01T10:18:35;101623.91;;;22.09;87.66
8627;BME280;4351;51.422;6.794;2022-09-01T10:21:08;101625.38;;;21.93;91.13
8627;BME280;4351;51.422;6.794;2022-09-01T10:23:39;101618.97;;;21.83;91.19
8627;BME280;4351;51.422;6.794;2022-09-01T10:26:15;101626.53;;;21.71;89.60
8627;BME280;4351;51.422;6.794;2022-09-01T10:28:47;101621.44;;;22.06;88.52
8627;BME280;4351;51.422;6.794;2022-09-01T10:31:19;101617.69;;;21.97;89.25
8627;BME280;4351;51.422;6.794;2022-09-01T10:33:48;101624.22;;;21.86;91.01
8627;BME280;4351;51.422;6.794;2022-09-01T10:36:17;101619.56;;;21.77;90.24
8627;BME280;4351;51.422;6.794;2022-09-01T10:38:50;101614.84;;;22.27;86.91
8627;BME280;4351;51.422;6.794;2022-09-01T10:41:55;101604.03;;;22.25;85.11
8627;BME280;4351;51.422;6.794;2022-09-01T10:44:29;101607.59;;;22.36;85.28
8627;BME280;4351;51.422;6.794;2022-09-01T10:47:04;101615.38;;;22.50;85.07
8627;BME280;4351;51.422;6.794;2022-09-01T10:49:57;101611.63;;;22.42;83.67
8627;BME280;4351;51.422;6.794;2022-09-01T10:55:40;101600.19;;;22.46;85.96
8627;BME280;4351;51.422;6.794;2022-09-01T10:58:41;101591.97;;;22.36;85.46
8627;BME280;4351;51.422;6.794;2022-09-01T11:02:03;101596.06;;;22.60;88.56
8627;BME280;4351;51.422;6.794;2022-09-01T11:05:15;101598.19;;;22.77;87.80
8627;BME280;4351;51.422;6.794;2022-09-01T11:07:43;101592.22;;;22.53;89.09
8627;BME280;4351;51.422;6.794;2022-09-01T11:10:43;101585.59;;;22.46;92.36
8627;BME280;4351;51.422;6.794;2022-09-01T11:13:34;101586.34;;;22.66;89.29
8627;BME280;4351;51.422;6.794;2022-09-01T11:16:26;101582.31;;;22.60;91.78
8627;BME280;4351;51.422;6.794;2022-09-01T11:19:37;101579.56;;;22.60;94.36
8627;BME280;4351;51.422;6.794;2022-09-01T11:22:26;101577.22;;;22.66;94.38
8627;BME280;4351;51.422;6.794;2022-09-01T11:25:11;101577.53;;;22.62;94.02
8627;BME280;4351;51.422;6.794;2022-09-01T11:27:58;101577.59;;;22.81;93.93
8627;BME280;4351;51.422;6.794;2022-09-01T11:30:43;101583.28;;;22.79;93.57
8627;BME280;4351;51.422;6.794;2022-09-01T11:33:41;101572.81;;;22.83;95.45
8627;BME280;4351;51.422;6.794;2022-09-01T11:36:20;101577.47;;;23.19;95.28
8627;BME280;4351;51.422;6.794;2022-09-01T11:38:53;101578.91;;;23.23;93.67
8627;BME280;4351;51.422;6.794;2022-09-01T11:41:25;101575.34;;;23.13;94.55
8627;BME280;4351;51.422;6.794;2022-09-01T11:44:00;101578.09;;;23.13;94.15
8627;BME280;4351;51.422;6.794;2022-09-01T11:46:31;101580.69;;;23.33;94.51
8627;BME280;4351;51.422;6.794;2022-09-01T11:49:04;101577.56;;;23.27;94.77
8627;BME280;4351;51.422;6.794;2022-09-01T11:51:42;101561.59;;;23.31;93.64
8627;BME280;4351;51.422;6.794;2022-09-01T11:54:15;101559.88;;;23.48;93.36
8627;BME280;4351;51.422;6.794;2022-09-01T11:56:43;101556.56;;;23.45;89.28
8627;BME280;4351;51.422;6.794;2022-09-01T11:59:12;101556.34;;;23.56;92.65
8627;BME280;4351;51.422;6.794;2022-09-01T12:01:41;101552.38;;;23.59;91.06
8627;BME280;4351;51.422;6.794;2022-09-01T12:04:21;101563.59;;;23.84;87.11
8627;BME280;4351;51.422;6.794;2022-09-01T12:06:55;101549.63;;;23.59;87.78
8627;BME280;4351;51.422;6.794;2022-09-01T12:09:32;101543.88;;;23.97;88.49
8627;BME280;4351;51.422;6.794;2022-09-01T12:12:00;101543.00;;;24.23;88.01
8627;BME280;4351;51.422;6.794;2022-09-01T12:14:29;101547.38;;;24.16;84.90
8627;BME280;4351;51.422;6.794;2022-09-01T12:17:19;101542.41;;;24.11;81.97
8627;BME280;4351;51.422;6.794;2022-09-01T12:19:47;101542.50;;;24.01;84.78
8627;BME280;4351;51.422;6.794;2022-09-01T12:22:17;101540.44;;;24.30;81.69
8627;BME280;4351;51.422;6.794;2022-09-01T12:24:47;101542.06;;;24.14;80.06
8627;BME280;4351;51.422;6.794;2022-09-01T12:27:15;101530.50;;;24.45;79.15
8627;BME280;4351;51.422;6.794;2022-09-01T12:29:43;101527.81;;;24.71;77.60
8627;BME280;4351;51.422;6.794;2022-09-01T12:32:14;101520.91;;;24.66;78.55
8627;BME280;4351;51.422;6.794;2022-09-01T12:34:46;101521.31;;;24.97;78.58
8627;BME280;4351;51.422;6.794;2022-09-01T12:37:20;101518.53;;;24.97;75.94
8627;BME280;4351;51.422;6.794;2022-09-01T12:39:50;101521.47;;;24.87;74.79
8627;BME280;4351;51.422;6.794;2022-09-01T12:42:25;101523.06;;;24.98;77.48
8627;BME280;4351;51.422;6.794;2022-09-01T12:44:55;101526.38;;;25.26;75.06
8627;BME280;4351;51.422;6.794;2022-09-01T12:47:49;101519.63;;;25.12;75.43
8627;BME280;4351;51.422;6.794;2022-09-01T12:50:52;101507.91;;;25.27;75.49
8627;BME280;4351;51.422;6.794;2022-09-01T12:53:25;101516.53;;;25.16;74.51
8627;BME280;4351;51.422;6.794;2022-09-01T12:56:01;101504.78;;;25.30;73.95
8627;BME280;4351;51.422;6.794;2022-09-01T12:58:31;101505.47;;;25.41;71.63
8627;BME280;4351;51.422;6.794;2022-09-01T13:01:03;101499.63;;;25.19;72.02
8627;BME280;4351;51.422;6.794;2022-09-01T13:04:15;101499.28;;;25.22;73.15
8627;BME280;4351;51.422;6.794;2022-09-01T13:06:51;101502.75;;;24.99;73.04
8627;BME280;4351;51.422;6.794;2022-09-01T13:09:20;101500.16;;;25.14;73.35
8627;BME280;4351;51.422;6.794;2022-09-01T13:11:48;101486.50;;;25.37;72.61
8627;BME280;4351;51.422;6.794;2022-09-01T13:14:34;101492.56;;;25.24;71.54
8627;BME280;4351;51.422;6.794;2022-09-01T13:17:02;101492.69;;;25.56;71.63
8627;BME280;4351;51.422;6.794;2022-09-01T13:19:41;101482.91;;;25.20;69.93
8627;BME280;4351;51.422;6.794;2022-09-01T13:22:11;101487.22;;;25.06;69.96
8627;BME280;4351;51.422;6.794;2022-09-01T13:24:42;101488.94;;;25.24;71.12
8627;BME280;4351;51.422;6.794;2022-09-01T13:27:11;101484.97;;;25.10;71.33
8627;BME280;4351;51.422;6.794;2022-09-01T13:29:49;101489.63;;;25.18;71.67
8627;BME280;4351;51.422;6.794;2022-09-01T13:32:19;101478.41;;;25.11;72.98
8627;BME280;4351;51.422;6.794;2022-09-01T13:34:50;101470.28;;;25.26;71.66
8627;BME280;4351;51.422;6.794;2022-09-01T13:37:20;101473.06;;;25.09;72.87
8627;BME280;4351;51.422;6.794;2022-09-01T13:39:48;101465.28;;;25.21;71.99
8627;BME280;4351;51.422;6.794;2022-09-01T13:42:17;101463.06;;;25.08;73.83
8627;BME280;4351;51.422;6.794;2022-09-01T13:44:45;101447.69;;;25.39;73.51
8627;BME280;4351;51.422;6.794;2022-09-01T13:47:20;101453.75;;;25.26;73.00
8627;BME280;4351;51.422;6.794;2022-09-01T13:49:58;101458.41;;;25.17;69.73
8627;BME280;4351;51.422;6.794;2022-09-01T13:52:40;101459.63;;;25.23;70.66
8627;BME280;4351;51.422;6.794;2022-09-01T13:55:12;101455.63;;;25.34;70.20
8627;BME280;4351;51.422;6.794;2022-09-01T13:57:41;101454.63;;;25.18;71.61
8627;BME280;4351;51.422;6.794;2022-09-01T14:00:14;101444.44;;;25.27;70.73
8627;BME280;4351;51.422;6.794;2022-09-01T14:02:46;101452.69;;;25.35;69.27
8627;BME280;4351;51.422;6.794;2022-09-01T14:05:18;101452.69;;;25.35;69.19
8627;BME280;4351;51.422;6.794;2022-09-01T14:07:48;101445.13;;;25.04;69.96
8627;BME280;4351;51.422;6.794;2022-09-01T14:10:21;101448.41;;;25.16;70.75
8627;BME280;4351;51.422;6.794;2022-09-01T14:12:50;101440.25;;;25.48;68.82
8627;BME280;4351;51.422;6.794;2022-09-01T14:15:20;101447.50;;;25.41;69.36
8627;BME280;4351;51.422;6.794;2022-09-01T14:17:55;101441.81;;;25.25;68.31
8627;BME280;4351;51.422;6.794;2022-09-01T14:20:26;101448.03;;;25.36;68.04
8627;BME280;4351;51.422;6.794;2022-09-01T14:22:58;101444.78;;;25.24;68.90
8627;BME280;4351;51.422;6.794;2022-09-01T14:25:26;101440.97;;;25.33;67.49
8627;BME280;4351;51.422;6.794;2022-09-01T14:27:54;101440.31;;;24.98;68.06
8627;BME280;4351;51.422;6.794;2022-09-01T14:30:24;101438.41;;;25.07;68.33
8627;BME280;4351;51.422;6.794;2022-09-01T14:32:57;101437.03;;;25.02;69.46
8627;BME280;4351;51.422;6.794;2022-09-01T14:35:26;101436.50;;;25.16;67.95
8627;BME280;4351;51.422;6.794;2022-09-01T14:37:55;101430.94;;;24.90;68.85
8627;BME280;4351;51.422;6.794;2022-09-01T14:40:25;101437.03;;;25.11;67.64
8627;BME280;4351;51.422;6.794;2022-09-01T14:42:55;101422.31;;;25.44;66.16
8627;BME280;4351;51.422;6.794;2022-09-01T14:45:25;101428.91;;;25.18;67.19
8627;BME280;4351;51.422;6.794;2022-09-01T14:47:56;101423.72;;;25.14;66.85
8627;BME280;4351;51.422;6.794;2022-09-01T14:50:27;101418.06;;;25.16;66.09
8627;BME280;4351;51.422;6.794;2022-09-01T14:53:00;101424.28;;;25.10;65.62
8627;BME280;4351;51.422;6.794;2022-09-01T14:55:30;101419.22;;;24.97;66.13
8627;BME280;4351;51.422;6.794;2022-09-01T14:57:59;101417.84;;;24.59;66.41
8627;BME280;4351;51.422;6.794;2022-09-01T15:00:27;101417.81;;;24.51;68.13
8627;BME280;4351;51.422;6.794;2022-09-01T15:02:56;101417.66;;;24.44;68.63
8627;BME280;4351;51.422;6.794;2022-09-01T15:05:24;101415.41;;;24.39;69.52
8627;BME280;4351;51.422;6.794;2022-09-01T15:07:52;101410.22;;;24.53;66.86
8627;BME280;4351;51.422;6.794;2022-09-01T15:10:23;101418.72;;;24.68;67.70
8627;BME280;4351;51.422;6.794;2022-09-01T15:12:54;101416.84;;;25.02;65.66
8627;BME280;4351;51.422;6.794;2022-09-01T15:15:24;101416.97;;;24.84;65.24
8627;BME280;4351;51.422;6.794;2022-09-01T15:17:54;101409.56;;;24.84;65.73
8627;BME280;4351;51.422;6.794;2022-09-01T15:20:23;101404.56;;;24.79;64.70
8627;BME280;4351;51.422;6.794;2022-09-01T15:23:09;101394.38;;;24.97;64.22